Time;durP1;ratioP1;P1;durP2;ratioP2;P2;SDS_P1;SDS_P2;PMS_P1;PMS_P2;Temp;Humidity;BMP_temperature;BMP_pressure;BME280_temperature;BME280_humidity;BME280_pressure;Samples;Min_cycle;Max_cycle;Signal;HPM_P1;HPM_P2
2023/11/28 00:00:17;;;;;;;0.62;0.40;;;9.20;72.90;;;;;;2288773;55;21285;-67
2023/11/28 00:02:44;;;;;;;1.17;0.40;;;9.20;72.90;;;;;;2288903;54;20995;-68
2023/11/28 00:05:10;;;;;;;0.88;0.32;;;9.30;73.00;;;;;;2518560;54;21124;-70
2023/11/28 00:07:36;;;;;;;1.20;0.43;;;9.30;73.00;;;;;;2521176;54;20980;-67
2023/11/28 00:10:06;;;;;;;0.60;0.25;;;9.30;73.00;;;;;;2521915;54;21031;-70
2023/11/28 00:12:32;;;;;;;0.85;0.40;;;9.30;73.00;;;;;;2289333;55;20991;-70
2023/11/28 00:14:59;;;;;;;0.98;0.50;;;9.30;73.00;;;;;;2287948;55;20962;-68
2023/11/28 00:17:25;;;;;;;0.73;0.37;;;9.30;73.00;;;;;;2523145;54;20982;-70
2023/11/28 00:19:53;;;;;;;1.20;0.43;;;9.40;73.10;;;;;;2287744;55;21596;-68
2023/11/28 00:22:20;;;;;;;1.05;0.40;;;9.40;73.10;;;;;;2523637;54;20996;-68
2023/11/28 00:24:46;;;;;;;0.55;0.30;;;9.40;73.10;;;;;;2523429;54;20987;-70
2023/11/28 00:27:12;;;;;;;1.45;0.60;;;9.40;73.10;;;;;;2523231;54;21042;-68
2023/11/28 00:29:40;;;;;;;0.82;0.30;;;9.40;73.00;;;;;;2288623;55;20966;-68
2023/11/28 00:32:08;;;;;;;1.50;0.50;;;9.50;73.10;;;;;;2522970;54;20959;-70
2023/11/28 00:34:34;;;;;;;0.50;0.30;;;9.50;73.00;;;;;;2288985;55;21304;-68
2023/11/28 00:37:00;;;;;;;1.50;0.40;;;9.40;72.90;;;;;;2522922;54;20966;-68
2023/11/28 00:39:27;;;;;;;0.60;0.30;;;9.50;73.10;;;;;;2288156;55;21479;-69
2023/11/28 00:41:54;;;;;;;0.85;0.40;;;9.50;73.10;;;;;;2292681;55;21014;-68
2023/11/28 00:44:20;;;;;;;0.77;0.37;;;9.50;73.10;;;;;;2284216;55;21818;-70
2023/11/28 00:46:47;;;;;;;0.93;0.30;;;9.50;73.10;;;;;;2517420;54;20979;-69
2023/11/28 00:49:14;;;;;;;0.90;0.40;;;9.60;73.20;;;;;;2286988;55;21297;-70
2023/11/28 00:55:21;;;;;;;0.45;0.28;;;9.60;72.80;;;;;;2521872;54;20944;-68
2023/11/28 00:57:47;;;;;;;0.35;0.28;;;9.60;73.20;;;;;;2523201;54;20959;-67
2023/11/28 01:00:14;;;;;;;0.95;0.30;;;9.60;73.20;;;;;;2288681;55;20983;-68
2023/11/28 01:02:40;;;;;;;0.52;0.25;;;9.70;73.30;;;;;;2523126;54;21039;-67
2023/11/28 01:05:10;;;;;;;0.35;0.20;;;9.70;73.30;;;;;;2291345;55;21079;-70
2023/11/28 01:07:37;;;;;;;0.65;0.30;;;9.70;73.30;;;;;;2288888;55;20983;-70
2023/11/28 01:10:04;;;;;;;0.45;0.30;;;9.70;73.30;;;;;;2523139;54;21030;-68
2023/11/28 01:12:31;;;;;;;0.60;0.30;;;9.70;73.30;;;;;;2523036;54;21038;-70
2023/11/28 01:14:58;;;;;;;0.70;0.30;;;9.70;73.30;;;;;;2522596;54;21090;-70
2023/11/28 01:17:24;;;;;;;1.30;0.30;;;9.80;73.40;;;;;;2523269;54;21007;-69
2023/11/28 01:19:51;;;;;;;0.62;0.30;;;9.80;73.40;;;;;;2288568;55;20966;-68
2023/11/28 01:22:18;;;;;;;0.30;0.20;;;9.80;73.50;;;;;;2288664;55;21006;-68
2023/11/28 01:24:45;;;;;;;0.35;0.20;;;9.80;73.40;;;;;;2288400;55;21011;-70
2023/11/28 01:27:13;;;;;;;1.25;0.40;;;9.80;73.50;;;;;;2523209;54;21478;-68
2023/11/28 01:29:39;;;;;;;0.43;0.30;;;9.80;73.50;;;;;;2522259;54;20971;-68
2023/11/28 01:32:06;;;;;;;1.40;0.32;;;9.80;73.50;;;;;;2288516;55;20960;-68
2023/11/28 01:34:32;;;;;;;0.50;0.22;;;9.90;73.60;;;;;;2523264;54;20958;-68
2023/11/28 01:36:59;;;;;;;0.37;0.30;;;9.90;73.50;;;;;;2522253;54;20966;-68
2023/11/28 01:39:25;;;;;;;0.80;0.40;;;9.90;73.50;;;;;;2288266;55;20979;-70
2023/11/28 01:41:52;;;;;;;0.28;0.20;;;9.90;73.50;;;;;;2523114;54;21460;-68
2023/11/28 01:44:18;;;;;;;0.50;0.30;;;10.00;72.40;;;;;;2288904;56;20951;-70
2023/11/28 01:46:44;;;;;;;1.00;0.40;;;10.00;72.40;;;;;;2519575;54;20989;-69
2023/11/28 01:49:11;;;;;;;0.57;0.22;;;10.00;72.40;;;;;;2286625;55;21120;-68
2023/11/28 01:51:40;;;;;;;0.50;0.30;;;10.00;72.30;;;;;;2288044;55;21805;-68
2023/11/28 01:54:07;;;;;;;1.40;0.30;;;10.00;72.20;;;;;;2522715;54;21682;-69
2023/11/28 01:56:40;;;;;;;2.12;0.40;;;10.00;72.20;;;;;;2523125;54;20967;-69
2023/11/28 01:59:07;;;;;;;0.68;0.37;;;10.10;72.10;;;;;;2285880;55;21512;-69
2023/11/28 02:01:34;;;;;;;0.70;0.30;;;10.10;72.20;;;;;;2287308;55;20939;-68
2023/11/28 02:04:01;;;;;;;0.80;0.35;;;10.10;72.20;;;;;;2287250;55;21520;-68
2023/11/28 02:06:28;;;;;;;0.68;0.32;;;10.10;72.10;;;;;;2289238;55;21134;-69
2023/11/28 02:08:55;;;;;;;0.68;0.30;;;10.20;72.20;;;;;;2518058;54;21030;-68
2023/11/28 02:11:22;;;;;;;1.12;0.47;;;10.10;72.20;;;;;;2288281;55;21027;-71
2023/11/28 02:13:49;;;;;;;0.70;0.40;;;10.10;72.10;;;;;;2288274;55;20947;-69
2023/11/28 02:16:16;;;;;;;0.68;0.32;;;10.10;72.10;;;;;;2288194;55;20963;-68
2023/11/28 02:18:42;;;;;;;0.52;0.30;;;10.10;72.20;;;;;;2523082;54;21007;-69
2023/11/28 02:21:12;;;;;;;1.05;0.40;;;10.10;72.20;;;;;;2287188;55;20995;-69
2023/11/28 02:23:39;;;;;;;1.27;0.40;;;10.10;72.20;;;;;;2288457;55;21405;-70
2023/11/28 02:26:24;;;;;;;0.73;0.40;;;10.10;72.20;;;;;;2522614;54;21023;-70
2023/11/28 02:28:51;;;;;;;1.02;0.45;;;10.10;72.00;;;;;;2291592;54;20963;-70
2023/11/28 02:31:21;;;;;;;0.73;0.30;;;10.10;72.20;;;;;;2288385;55;21020;-68
2023/11/28 02:33:48;;;;;;;0.88;0.50;;;10.10;72.30;;;;;;2522674;54;20979;-68
2023/11/28 02:36:14;;;;;;;1.12;0.50;;;10.10;72.20;;;;;;2287940;54;21551;-68
2023/11/28 02:38:41;;;;;;;0.73;0.40;;;10.10;72.20;;;;;;2288438;55;21042;-69
2023/11/28 02:41:07;;;;;;;1.35;0.60;;;10.10;72.20;;;;;;2287838;55;20948;-69
2023/11/28 02:43:34;;;;;;;2.42;0.70;;;10.10;72.20;;;;;;2522274;54;21458;-69
2023/11/28 02:46:00;;;;;;;1.10;0.47;;;10.10;72.20;;;;;;2288302;55;20987;-68
2023/11/28 02:48:27;;;;;;;0.80;0.40;;;10.10;72.20;;;;;;2288911;56;20971;-70
2023/11/28 02:50:53;;;;;;;1.12;0.40;;;10.10;72.30;;;;;;2288434;55;21607;-71
2023/11/28 02:53:20;;;;;;;1.65;0.50;;;10.10;72.40;;;;;;2522775;54;20991;-70
2023/11/28 02:55:47;;;;;;;0.90;0.40;;;10.10;72.30;;;;;;2523390;54;21028;-71
2023/11/28 02:58:13;;;;;;;1.05;0.50;;;10.10;72.40;;;;;;2522255;54;21066;-68
2023/11/28 03:00:40;;;;;;;1.08;0.55;;;10.10;72.40;;;;;;2288335;55;20975;-70
2023/11/28 03:03:06;;;;;;;0.85;0.40;;;10.20;72.60;;;;;;2521622;54;20975;-69
2023/11/28 03:05:32;;;;;;;1.08;0.60;;;10.20;72.60;;;;;;2289619;55;20927;-69
2023/11/28 03:07:59;;;;;;;0.90;0.37;;;10.20;72.70;;;;;;2287969;55;21770;-67
2023/11/28 03:10:26;;;;;;;1.12;0.57;;;10.20;72.60;;;;;;2288704;55;20987;-70
2023/11/28 03:12:55;;;;;;;1.05;0.50;;;10.20;72.70;;;;;;2518093;54;20960;-71
2023/11/28 03:15:21;;;;;;;1.05;0.60;;;10.20;72.50;;;;;;2289320;55;21033;-71
2023/11/28 03:17:48;;;;;;;1.30;0.60;;;10.20;72.60;;;;;;2287989;55;21004;-70
2023/11/28 03:20:14;;;;;;;1.65;0.60;;;10.20;72.60;;;;;;2521559;54;20964;-68
2023/11/28 03:22:42;;;;;;;1.17;0.50;;;10.20;72.70;;;;;;2517990;54;21264;-69
2023/11/28 03:25:11;;;;;;;1.52;0.50;;;10.20;72.70;;;;;;2517581;54;21020;-71
2023/11/28 03:27:37;;;;;;;0.68;0.40;;;10.30;72.70;;;;;;2291025;54;21038;-70
2023/11/28 03:30:04;;;;;;;1.00;0.45;;;10.30;72.70;;;;;;2284489;55;20956;-68
2023/11/28 03:32:34;;;;;;;1.23;0.47;;;10.30;72.60;;;;;;2523204;54;21023;-70
2023/11/28 03:35:01;;;;;;;1.17;0.50;;;10.30;72.70;;;;;;2522859;54;21027;-70
2023/11/28 03:38:07;;;;;;;0.95;0.50;;;10.30;72.70;;;;;;2288737;56;21140;-71
2023/11/28 03:40:33;;;;;;;1.30;0.50;;;10.30;72.40;;;;;;2256777;55;21015;-68
2023/11/28 03:43:06;;;;;;;0.75;0.40;;;10.30;72.70;;;;;;2288789;55;20987;-70
2023/11/28 03:45:33;;;;;;;1.20;0.50;;;10.30;72.60;;;;;;2256529;55;21048;-69
2023/11/28 03:47:59;;;;;;;1.25;0.50;;;10.30;72.80;;;;;;2523189;54;20959;-70
2023/11/28 03:50:41;;;;;;;1.40;0.50;;;10.30;72.80;;;;;;2289024;56;21062;-71
2023/11/28 03:53:08;;;;;;;1.20;0.47;;;10.40;72.60;;;;;;2522710;54;21051;-70
2023/11/28 03:55:37;;;;;;;4.22;0.50;;;10.40;72.80;;;;;;2288572;55;20963;-72
2023/11/28 03:58:03;;;;;;;1.05;0.40;;;10.40;72.70;;;;;;2287743;55;20979;-70
2023/11/28 04:00:30;;;;;;;1.62;0.45;;;10.40;72.80;;;;;;2267841;56;20966;-71
2023/11/28 04:03:05;;;;;;;0.70;0.40;;;10.40;72.80;;;;;;2285674;55;21770;-69
2023/11/28 04:05:32;;;;;;;1.25;0.50;;;10.40;72.60;;;;;;2288461;56;21488;-70
2023/11/28 04:07:58;;;;;;;0.70;0.40;;;10.40;72.70;;;;;;2521959;54;21010;-72
2023/11/28 04:10:25;;;;;;;1.00;0.40;;;10.40;72.60;;;;;;2518798;54;20947;-69
2023/11/28 04:12:51;;;;;;;1.23;0.40;;;10.40;72.60;;;;;;2522918;54;20959;-71
2023/11/28 04:15:18;;;;;;;0.82;0.40;;;10.40;72.60;;;;;;2522328;54;20952;-71
2023/11/28 04:17:44;;;;;;;0.47;0.32;;;10.40;72.60;;;;;;2523059;54;20940;-70
2023/11/28 04:20:10;;;;;;;1.12;0.45;;;10.40;72.60;;;;;;2522777;54;20963;-70
2023/11/28 04:22:37;;;;;;;0.60;0.22;;;10.50;72.70;;;;;;2522644;54;20968;-70
2023/11/28 04:25:05;;;;;;;1.02;0.40;;;10.40;72.60;;;;;;2288528;55;20951;-71
2023/11/28 04:27:31;;;;;;;0.80;0.40;;;10.40;72.60;;;;;;2523499;54;20976;-70
2023/11/28 04:29:58;;;;;;;0.95;0.47;;;10.40;72.60;;;;;;2288119;55;21360;-68
2023/11/28 04:32:24;;;;;;;0.80;0.35;;;10.40;72.60;;;;;;2523097;54;21410;-71
2023/11/28 04:34:51;;;;;;;0.50;0.30;;;10.50;72.60;;;;;;2288910;55;21047;-69
2023/11/28 04:37:17;;;;;;;1.15;0.40;;;10.50;72.60;;;;;;2287983;55;20971;-69
2023/11/28 04:39:45;;;;;;;1.73;0.50;;;10.50;72.60;;;;;;2522899;54;20943;-70
2023/11/28 04:42:11;;;;;;;0.95;0.40;;;10.50;72.60;;;;;;2522783;54;21270;-69
2023/11/28 04:44:37;;;;;;;0.50;0.30;;;10.50;72.60;;;;;;2523068;54;21500;-70
2023/11/28 04:47:04;;;;;;;1.58;0.40;;;10.50;72.70;;;;;;2287879;55;20962;-69
2023/11/28 04:49:30;;;;;;;0.75;0.35;;;10.50;72.70;;;;;;2520274;54;21014;-71
2023/11/28 04:51:56;;;;;;;1.05;0.50;;;10.60;72.80;;;;;;2518766;54;20951;-69
2023/11/28 04:54:23;;;;;;;1.40;0.50;;;10.50;72.80;;;;;;2522494;54;21052;-69
2023/11/28 04:56:49;;;;;;;0.85;0.45;;;10.50;72.80;;;;;;2288916;55;21094;-69
2023/11/28 04:59:17;;;;;;;2.10;0.90;;;10.50;72.80;;;;;;2288139;55;21027;-70
2023/11/28 05:01:44;;;;;;;3.03;1.05;;;10.50;72.80;;;;;;2288723;55;20952;-71
2023/11/28 05:04:10;;;;;;;3.28;1.30;;;10.50;72.80;;;;;;2522399;54;20983;-70
2023/11/28 05:06:38;;;;;;;4.25;1.60;;;10.50;72.90;;;;;;2288080;55;20968;-71
2023/11/28 05:09:06;;;;;;;3.72;1.37;;;10.60;73.00;;;;;;2288773;55;20975;-69
2023/11/28 05:11:32;;;;;;;3.92;1.45;;;10.50;72.90;;;;;;2522232;54;21031;-70
2023/11/28 05:13:59;;;;;;;3.53;1.27;;;10.60;73.10;;;;;;2288592;56;21067;-69
2023/11/28 05:16:25;;;;;;;2.83;0.98;;;10.60;73.00;;;;;;2288151;55;20959;-70
2023/11/28 05:18:53;;;;;;;2.70;0.90;;;10.60;73.00;;;;;;2288482;55;21122;-70
2023/11/28 05:21:20;;;;;;;2.28;0.90;;;10.60;72.90;;;;;;2288242;55;20991;-71
2023/11/28 05:23:48;;;;;;;1.35;0.60;;;10.60;72.80;;;;;;2522854;54;21424;-70
2023/11/28 05:26:15;;;;;;;1.75;0.60;;;10.60;72.60;;;;;;2291076;55;21796;-69
2023/11/28 05:28:41;;;;;;;1.95;0.70;;;10.60;72.60;;;;;;2517537;54;20964;-71
2023/11/28 05:31:07;;;;;;;1.40;0.52;;;10.60;72.60;;;;;;2522872;54;21514;-70
2023/11/28 05:33:35;;;;;;;1.90;0.70;;;10.70;72.70;;;;;;2288563;55;20980;-69
2023/11/28 05:36:06;;;;;;;2.20;0.98;;;10.70;72.70;;;;;;2517449;54;20958;-70
2023/11/28 05:38:32;;;;;;;1.62;0.75;;;10.60;72.60;;;;;;2287995;55;20969;-70
2023/11/28 05:40:59;;;;;;;1.80;0.77;;;10.60;72.60;;;;;;2287927;54;21104;-71
2023/11/28 05:43:32;;;;;;;1.30;0.50;;;10.60;72.50;;;;;;2288516;55;21055;-70
2023/11/28 05:45:59;;;;;;;1.92;0.70;;;10.70;72.50;;;;;;2523012;54;21015;-69
2023/11/28 05:48:26;;;;;;;1.27;0.60;;;10.60;72.50;;;;;;2522573;54;20979;-70
2023/11/28 05:50:53;;;;;;;1.75;0.73;;;10.60;72.40;;;;;;2289134;55;21281;-69
2023/11/28 05:53:19;;;;;;;1.73;0.70;;;10.60;72.30;;;;;;2520927;54;21472;-71
2023/11/28 05:55:46;;;;;;;1.87;0.80;;;10.60;72.20;;;;;;2523304;54;20968;-70
2023/11/28 05:58:13;;;;;;;1.85;0.88;;;10.60;72.10;;;;;;2288219;55;21421;-71
2023/11/28 06:00:39;;;;;;;2.08;0.80;;;10.60;71.80;;;;;;2288400;55;21078;-69
2023/11/28 06:03:13;;;;;;;1.48;0.70;;;10.50;71.20;;;;;;2518384;54;21009;-70
2023/11/28 06:05:57;;;;;;;1.52;0.68;;;10.50;70.80;;;;;;2517973;54;21030;-71
2023/11/28 06:08:24;;;;;;;1.02;0.50;;;10.40;70.10;;;;;;2518216;54;21547;-71
2023/11/28 06:10:56;;;;;;;1.30;0.60;;;10.20;70.20;;;;;;2288767;55;20967;-69
2023/11/28 06:13:22;;;;;;;1.25;0.60;;;10.30;70.10;;;;;;2288662;54;21477;-69
2023/11/28 06:15:49;;;;;;;1.60;0.62;;;10.20;70.10;;;;;;2523100;54;20977;-70
2023/11/28 06:18:15;;;;;;;1.30;0.60;;;10.20;70.20;;;;;;2287745;55;21878;-70
2023/11/28 06:20:43;;;;;;;1.48;0.62;;;10.10;70.10;;;;;;2290615;55;20991;-73
2023/11/28 06:23:11;;;;;;;1.30;0.60;;;10.00;70.10;;;;;;2522796;54;20971;-69
2023/11/28 06:25:39;;;;;;;1.25;0.60;;;10.00;70.00;;;;;;2522976;54;20948;-70
2023/11/28 06:28:07;;;;;;;1.40;0.60;;;9.90;70.90;;;;;;2289699;55;20951;-69
2023/11/28 06:30:33;;;;;;;1.33;0.60;;;9.80;70.80;;;;;;2522703;54;20995;-70
2023/11/28 06:33:00;;;;;;;1.17;0.52;;;9.80;70.90;;;;;;2288399;55;20988;-72
2023/11/28 06:35:26;;;;;;;1.20;0.60;;;9.70;70.80;;;;;;2287866;55;21952;-70
2023/11/28 06:37:53;;;;;;;1.58;0.60;;;9.60;70.70;;;;;;2288341;55;21068;-69
2023/11/28 06:40:22;;;;;;;2.30;1.00;;;9.50;70.60;;;;;;2288839;55;20975;-71
2023/11/28 06:42:48;;;;;;;1.70;0.80;;;9.50;70.50;;;;;;2522919;54;20971;-70
2023/11/28 06:45:15;;;;;;;1.60;0.70;;;9.40;70.50;;;;;;2522618;54;20963;-72
2023/11/28 06:47:42;;;;;;;1.75;0.75;;;9.30;70.30;;;;;;2523545;54;21019;-69
2023/11/28 06:50:19;;;;;;;1.90;0.90;;;9.30;70.30;;;;;;2288814;55;20977;-71
2023/11/28 06:52:48;;;;;;;1.52;0.70;;;9.20;70.00;;;;;;2288616;54;21031;-69
2023/11/28 06:55:15;;;;;;;1.40;0.60;;;9.10;70.10;;;;;;2518263;54;20989;-69
2023/11/28 06:57:43;;;;;;;1.70;0.88;;;9.00;70.10;;;;;;2287828;55;20980;-70
2023/11/28 07:00:11;;;;;;;1.98;0.80;;;8.90;70.00;;;;;;2523260;54;20996;-68
2023/11/28 07:02:37;;;;;;;1.70;0.80;;;8.80;70.00;;;;;;2522989;54;20999;-68
2023/11/28 07:05:04;;;;;;;1.45;0.75;;;8.80;70.00;;;;;;2522437;54;21139;-68
2023/11/28 07:07:32;;;;;;;2.40;0.80;;;8.70;69.90;;;;;;2291231;55;21456;-69
2023/11/28 07:09:58;;;;;;;2.62;0.93;;;8.60;70.00;;;;;;2518028;54;21008;-69
2023/11/28 07:12:25;;;;;;;1.77;0.80;;;8.50;69.90;;;;;;2521778;54;21475;-71
2023/11/28 07:14:51;;;;;;;1.20;0.68;;;8.50;70.10;;;;;;2516957;54;20976;-68
2023/11/28 07:17:17;;;;;;;1.62;0.90;;;8.40;70.10;;;;;;2288095;55;21998;-70
2023/11/28 07:19:44;;;;;;;2.03;0.90;;;8.30;70.10;;;;;;2522690;54;21046;-69
2023/11/28 07:22:10;;;;;;;1.58;0.75;;;8.30;70.20;;;;;;2289134;54;20976;-69
2023/11/28 07:24:38;;;;;;;1.55;0.90;;;8.20;70.20;;;;;;2521108;54;20943;-71
2023/11/28 07:27:04;;;;;;;1.80;0.90;;;8.10;70.10;;;;;;2288493;55;21420;-70
2023/11/28 07:29:31;;;;;;;2.22;1.10;;;8.10;70.20;;;;;;2287900;55;21028;-68
2023/11/28 07:31:58;;;;;;;1.90;1.00;;;8.10;70.40;;;;;;2522972;54;21409;-68
2023/11/28 07:34:24;;;;;;;1.58;0.90;;;8.00;70.20;;;;;;2288358;55;21025;-70
2023/11/28 07:36:51;;;;;;;1.87;0.95;;;7.90;70.30;;;;;;2288916;55;20961;-70
2023/11/28 07:39:17;;;;;;;1.77;1.00;;;7.90;70.40;;;;;;2521998;54;21085;-68
2023/11/28 07:41:44;;;;;;;1.80;0.80;;;7.80;70.40;;;;;;2289241;55;20986;-68
2023/11/28 07:44:10;;;;;;;1.77;0.98;;;7.80;70.50;;;;;;2290759;55;20999;-68
2023/11/28 07:46:37;;;;;;;1.75;0.80;;;7.80;70.50;;;;;;2517747;54;21682;-69
2023/11/28 07:49:05;;;;;;;1.67;0.90;;;7.70;70.30;;;;;;2288747;55;20980;-69
2023/11/28 07:51:32;;;;;;;1.70;0.80;;;7.60;70.30;;;;;;2288159;55;20963;-68
2023/11/28 07:53:58;;;;;;;1.75;0.80;;;7.60;70.30;;;;;;2523340;54;21012;-68
2023/11/28 07:56:24;;;;;;;1.50;0.70;;;7.60;70.20;;;;;;2288444;55;20972;-68
2023/11/28 07:58:51;;;;;;;1.75;0.70;;;7.50;70.10;;;;;;2288155;55;20975;-67
2023/11/28 08:01:18;;;;;;;1.75;0.90;;;7.50;70.30;;;;;;2523264;54;21075;-68
2023/11/28 08:03:44;;;;;;;1.65;0.80;;;7.50;70.20;;;;;;2492082;54;21090;-69
2023/11/28 08:06:13;;;;;;;1.60;0.62;;;7.40;70.30;;;;;;2288720;55;20968;-68
2023/11/28 08:08:39;;;;;;;2.12;0.77;;;7.30;70.30;;;;;;2521807;54;25556;-69
2023/11/28 08:11:12;;;;;;;1.52;0.77;;;7.30;70.30;;;;;;2288513;54;21055;-68
2023/11/28 08:13:39;;;;;;;3.12;0.85;;;7.30;70.30;;;;;;2516217;54;21060;-70
2023/11/28 08:16:06;;;;;;;1.75;0.80;;;7.30;70.40;;;;;;2522057;54;20963;-69
2023/11/28 08:18:32;;;;;;;2.25;1.00;;;7.20;70.40;;;;;;2288140;55;21016;-69
2023/11/28 08:21:03;;;;;;;1.75;0.90;;;7.20;70.40;;;;;;2288774;55;21038;-68
2023/11/28 08:23:29;;;;;;;1.90;1.00;;;7.20;70.50;;;;;;2288800;55;20948;-71
2023/11/28 08:25:55;;;;;;;2.50;0.90;;;7.10;70.50;;;;;;2287918;55;21284;-69
2023/11/28 08:28:23;;;;;;;2.40;1.00;;;7.10;70.60;;;;;;2522726;54;20983;-67
2023/11/28 08:30:53;;;;;;;2.70;1.08;;;7.10;70.70;;;;;;2523348;54;20955;-69
2023/11/28 08:33:22;;;;;;;2.12;0.98;;;7.10;70.70;;;;;;2523633;54;21429;-68
2023/11/28 08:35:48;;;;;;;2.33;1.25;;;7.00;70.70;;;;;;2288275;55;21023;-68
2023/11/28 08:38:15;;;;;;;1.87;0.88;;;7.00;70.60;;;;;;2522870;54;21035;-68
2023/11/28 08:40:42;;;;;;;2.25;1.00;;;7.00;70.70;;;;;;2288218;55;21441;-68
2023/11/28 08:43:09;;;;;;;2.10;0.95;;;7.00;70.80;;;;;;2288999;55;20966;-70
2023/11/28 08:45:35;;;;;;;2.53;1.02;;;7.00;70.80;;;;;;2522759;54;21009;-69
2023/11/28 08:48:04;;;;;;;2.30;1.00;;;7.00;70.80;;;;;;2287115;55;21097;-69
2023/11/28 08:50:30;;;;;;;1.90;1.00;;;7.00;70.90;;;;;;2287474;55;20960;-68
2023/11/28 08:52:57;;;;;;;3.05;1.02;;;6.90;70.70;;;;;;2287859;55;21011;-68
2023/11/28 08:55:24;;;;;;;2.17;1.15;;;7.00;71.00;;;;;;2523275;54;21008;-67
2023/11/28 08:57:50;;;;;;;2.20;1.00;;;6.90;70.90;;;;;;2519648;54;20985;-69
2023/11/28 09:00:17;;;;;;;2.53;1.10;;;6.90;70.80;;;;;;2290828;54;20987;-67
2023/11/28 09:02:45;;;;;;;2.10;1.05;;;6.90;70.90;;;;;;2288096;55;20995;-69
2023/11/28 09:05:11;;;;;;;2.70;1.30;;;6.90;70.90;;;;;;2291635;55;21793;-70
2023/11/28 09:07:40;;;;;;;2.55;1.30;;;6.90;71.00;;;;;;2288074;55;21797;-68
2023/11/28 09:10:07;;;;;;;2.92;1.20;;;6.90;71.10;;;;;;2523580;54;21734;-69
2023/11/28 09:12:34;;;;;;;2.00;1.10;;;6.90;71.00;;;;;;2287895;56;21724;-70
2023/11/28 09:15:01;;;;;;;2.33;1.10;;;6.90;71.20;;;;;;2522812;54;20975;-70
2023/11/28 09:17:27;;;;;;;2.30;1.10;;;6.90;71.00;;;;;;2289464;54;20957;-69
2023/11/28 09:19:54;;;;;;;2.20;1.00;;;6.90;71.10;;;;;;2286172;55;21441;-68
2023/11/28 09:22:23;;;;;;;2.40;1.30;;;6.90;71.00;;;;;;2288913;55;20967;-69
2023/11/28 09:24:51;;;;;;;2.10;1.00;;;6.90;71.10;;;;;;2287186;55;21012;-68
2023/11/28 09:27:18;;;;;;;2.90;1.42;;;6.90;71.10;;;;;;2288746;55;20963;-69
2023/11/28 09:29:45;;;;;;;2.65;1.40;;;6.90;71.10;;;;;;2522711;54;21412;-67
2023/11/28 09:32:13;;;;;;;2.78;1.35;;;6.90;71.10;;;;;;2288209;55;21039;-68
2023/11/28 09:34:41;;;;;;;3.35;1.60;;;6.90;71.20;;;;;;2519922;54;21144;-68
2023/11/28 09:37:08;;;;;;;2.78;1.33;;;6.90;71.20;;;;;;2285666;55;21106;-68
2023/11/28 09:39:36;;;;;;;2.25;1.10;;;6.90;71.20;;;;;;2523148;54;20991;-69
2023/11/28 09:42:05;;;;;;;2.80;1.40;;;6.90;71.20;;;;;;2520196;54;21665;-68
2023/11/28 09:44:34;;;;;;;2.62;1.20;;;6.90;71.20;;;;;;2519280;54;21066;-70
2023/11/28 09:47:08;;;;;;;3.12;1.37;;;6.90;71.10;;;;;;2288419;55;20983;-70
2023/11/28 09:49:42;;;;;;;2.70;1.27;;;6.90;71.10;;;;;;2522887;54;20959;-70
2023/11/28 09:52:09;;;;;;;1.85;1.05;;;6.90;71.00;;;;;;2523330;54;21051;-69
2023/11/28 09:54:37;;;;;;;2.53;1.45;;;6.90;71.20;;;;;;2289147;55;21019;-68
2023/11/28 09:57:07;;;;;;;2.60;1.40;;;6.90;71.30;;;;;;2522631;54;20979;-67
2023/11/28 09:59:38;;;;;;;3.00;1.40;;;6.90;71.20;;;;;;2522742;54;22001;-68
2023/11/28 10:02:06;;;;;;;2.72;1.30;;;6.90;71.20;;;;;;2523336;54;20975;-70
2023/11/28 10:04:34;;;;;;;2.87;1.20;;;6.90;71.30;;;;;;2522956;54;20951;-68
2023/11/28 10:07:01;;;;;;;2.80;1.33;;;6.90;71.20;;;;;;2522031;54;20959;-69
2023/11/28 10:09:31;;;;;;;3.08;1.30;;;6.90;71.30;;;;;;2288677;55;20960;-68
2023/11/28 10:12:00;;;;;;;2.60;1.30;;;6.90;71.30;;;;;;2288258;55;20991;-69
2023/11/28 10:14:27;;;;;;;5.53;1.40;;;6.90;71.20;;;;;;2523231;54;20940;-67
2023/11/28 10:16:54;;;;;;;3.53;1.45;;;6.90;71.30;;;;;;2522712;54;21027;-69
2023/11/28 10:19:22;;;;;;;2.50;1.15;;;7.00;71.50;;;;;;2291946;55;20974;-68
2023/11/28 10:21:49;;;;;;;2.28;1.15;;;6.90;71.30;;;;;;2284205;55;20959;-69
2023/11/28 10:24:20;;;;;;;2.70;1.20;;;7.00;71.50;;;;;;2523062;54;21002;-67
2023/11/28 10:26:48;;;;;;;2.58;1.27;;;7.00;71.40;;;;;;2522514;54;21051;-67
2023/11/28 10:29:17;;;;;;;2.60;1.40;;;7.00;71.40;;;;;;2523183;54;20972;-68
2023/11/28 10:31:43;;;;;;;3.15;1.62;;;7.00;71.40;;;;;;2288592;55;20955;-69
2023/11/28 10:34:10;;;;;;;2.08;1.10;;;7.00;71.40;;;;;;2522977;54;20948;-70
2023/11/28 10:36:42;;;;;;;3.22;1.27;;;7.00;71.30;;;;;;2522077;54;20951;-68
2023/11/28 10:39:10;;;;;;;3.37;1.60;;;7.00;71.10;;;;;;2516035;55;22014;-69
2023/11/28 10:41:43;;;;;;;3.08;1.70;;;7.10;71.40;;;;;;2520793;54;20975;-70
2023/11/28 10:44:09;;;;;;;2.90;1.60;;;7.00;71.90;;;;;;2517966;54;20991;-68
2023/11/28 10:46:36;;;;;;;2.65;1.40;;;7.00;71.10;;;;;;2522800;54;20951;-70
2023/11/28 10:49:03;;;;;;;3.62;1.70;;;7.00;71.10;;;;;;2288614;55;21816;-70
2023/11/28 10:51:30;;;;;;;2.87;1.48;;;7.00;71.10;;;;;;2519344;54;20954;-69
2023/11/28 10:54:07;;;;;;;2.83;1.55;;;7.00;71.10;;;;;;2286542;55;21022;-70
2023/11/28 10:56:47;;;;;;;2.92;1.40;;;7.10;71.10;;;;;;2522840;54;20951;-69
2023/11/28 10:59:20;;;;;;;2.87;1.30;;;7.10;71.00;;;;;;2288488;54;21207;-71
2023/11/28 11:01:47;;;;;;;2.60;1.40;;;7.00;71.10;;;;;;2285392;55;20967;-67
2023/11/28 11:04:13;;;;;;;3.05;1.60;;;7.00;71.20;;;;;;2289592;55;20967;-70
2023/11/28 11:06:40;;;;;;;2.50;1.40;;;7.00;71.20;;;;;;2287944;55;20951;-69
2023/11/28 11:09:08;;;;;;;3.35;1.83;;;7.00;71.40;;;;;;2523017;54;20982;-68
2023/11/28 11:11:34;;;;;;;3.10;1.70;;;7.10;71.40;;;;;;2287254;55;21023;-68
2023/11/28 11:15:35;;;;;;;3.20;1.90;;;7.10;72.10;;;;;;2287841;55;20994;-67
2023/11/28 11:18:17;;;;;;;3.35;1.95;;;7.10;70.70;;;;;;2287906;55;20992;-68
2023/11/28 11:20:45;;;;;;;3.37;1.85;;;7.10;71.20;;;;;;2522773;54;21079;-69
2023/11/28 11:23:14;;;;;;;2.75;1.45;;;7.10;71.20;;;;;;2288453;55;20991;-68
2023/11/28 11:25:41;;;;;;;2.90;1.52;;;7.10;71.20;;;;;;2522580;54;21902;-68
2023/11/28 11:28:08;;;;;;;3.78;2.00;;;7.10;71.20;;;;;;2288579;55;21059;-67
2023/11/28 11:30:37;;;;;;;2.97;1.55;;;7.10;71.20;;;;;;2288464;55;21868;-68
2023/11/28 11:33:07;;;;;;;4.05;1.92;;;7.10;71.10;;;;;;2288011;55;21031;-68
2023/11/28 11:36:05;;;;;;;3.37;2.00;;;7.10;71.20;;;;;;2288915;55;21071;-68
2023/11/28 11:38:32;;;;;;;3.42;1.98;;;7.10;70.80;;;;;;2288490;56;21039;-69
2023/11/28 11:40:58;;;;;;;3.30;2.00;;;7.10;71.00;;;;;;2288000;55;21018;-69
2023/11/28 11:43:26;;;;;;;3.47;2.00;;;7.00;70.80;;;;;;2288852;55;21067;-68
2023/11/28 11:45:53;;;;;;;3.28;2.20;;;7.00;70.80;;;;;;2288250;55;21453;-70
2023/11/28 11:48:25;;;;;;;3.47;2.10;;;7.00;70.80;;;;;;2293085;55;21504;-68
2023/11/28 11:50:55;;;;;;;3.60;2.15;;;7.00;70.80;;;;;;2519316;54;20984;-67
2023/11/28 11:53:21;;;;;;;5.05;2.00;;;7.00;70.90;;;;;;2287706;55;21092;-69
2023/11/28 11:55:48;;;;;;;4.80;2.30;;;7.00;71.00;;;;;;2288296;55;21045;-68
2023/11/28 11:58:14;;;;;;;3.60;2.28;;;7.00;71.00;;;;;;2523312;54;21869;-69
2023/11/28 12:00:41;;;;;;;3.20;2.20;;;6.90;70.90;;;;;;2291667;55;21737;-68
2023/11/28 12:03:10;;;;;;;3.40;2.10;;;6.90;70.90;;;;;;2284335;54;20964;-67
2023/11/28 12:05:49;;;;;;;3.33;2.03;;;6.90;70.90;;;;;;2289061;55;20987;-68
2023/11/28 12:08:15;;;;;;;3.50;2.12;;;6.90;70.70;;;;;;2523316;54;20968;-68
2023/11/28 12:10:41;;;;;;;3.75;2.40;;;6.90;70.90;;;;;;2296039;55;20992;-69
2023/11/28 12:13:10;;;;;;;4.97;2.35;;;6.90;71.00;;;;;;2519244;54;20975;-67
2023/11/28 12:15:37;;;;;;;3.70;2.05;;;6.90;71.00;;;;;;2522184;54;20971;-68
2023/11/28 12:18:11;;;;;;;3.90;2.03;;;6.90;71.00;;;;;;2284959;54;21496;-68
2023/11/28 12:20:38;;;;;;;3.50;2.00;;;6.90;71.00;;;;;;2522983;54;20947;-67
2023/11/28 12:23:09;;;;;;;3.17;1.87;;;6.90;71.20;;;;;;2288381;55;20935;-69
2023/11/28 12:25:39;;;;;;;2.65;1.62;;;6.90;71.30;;;;;;2288932;55;20935;-68
2023/11/28 12:28:09;;;;;;;3.35;2.05;;;6.90;71.20;;;;;;2523027;54;20984;-67
2023/11/28 12:30:36;;;;;;;2.78;1.70;;;7.00;71.30;;;;;;2266351;56;20963;-69
2023/11/28 12:33:03;;;;;;;4.20;2.08;;;7.00;71.30;;;;;;2523235;54;21007;-68
2023/11/28 12:35:30;;;;;;;3.53;1.90;;;7.00;71.30;;;;;;2523486;54;20951;-68
2023/11/28 12:37:57;;;;;;;3.03;1.60;;;7.00;71.30;;;;;;2522756;54;21451;-67
2023/11/28 12:40:23;;;;;;;4.30;2.17;;;7.00;71.40;;;;;;2523023;54;20984;-69
2023/11/28 12:42:50;;;;;;;4.00;2.33;;;7.00;71.40;;;;;;2522812;54;21373;-69
2023/11/28 12:45:25;;;;;;;3.42;2.05;;;7.00;71.40;;;;;;2522212;54;20955;-70
2023/11/28 12:47:51;;;;;;;4.55;2.58;;;7.10;71.40;;;;;;2522858;54;20947;-67
2023/11/28 12:50:17;;;;;;;4.30;2.80;;;7.10;71.40;;;;;;2523925;54;21019;-69
2023/11/28 12:52:44;;;;;;;4.20;2.72;;;7.10;71.40;;;;;;2288919;55;21007;-68
2023/11/28 12:55:11;;;;;;;3.90;2.60;;;7.10;71.40;;;;;;2288539;55;21425;-68
2023/11/28 12:57:38;;;;;;;3.78;2.40;;;7.10;71.50;;;;;;2288271;55;20988;-68
2023/11/28 13:00:05;;;;;;;3.58;2.25;;;7.10;71.50;;;;;;2519782;54;21005;-68